Terminal Aerodrome Forecast
Issued by NWS Missoula, MT

Home | Current Version | Previous Version | Text Only | Print | Product List | Glossary On
Versions: 1 2 3 4 5 6 7 8 9 10 11 12 13 14 15 16 17 18 19 20 21 22 23 24 25 26 27 28 29
000
FTUS45 KMSO 212336
TAFMSO
TAF
KMSO 212336Z 2200/2224 26003KT 4SM BR VCSH OVC050
     FM220400 12003KT 4SM BR SCT010 OVC030
     FM220900 13002KT 2SM BR SCT005 BKN030
     FM221700 13003KT P6SM BKN040=

USA.gov is the U.S. government's official web portal to all federal, state and local government web resources and services.